KRNT - Renton
Updated: Tue, 16-Oct-2018 11:53pm PDT

 Wind from calm
Wind: Calm
Temperature: 50°F , 10°C
Dew Point: 46°F , 8°C
Humidity: 88%
Barometer: 30.23 inHg , 1023.7 hPa
Visibility: 9 miles , 14 km
2018/10/17 06:53 KRNT 170653Z AUTO 00000KT 9SM CLR 10/08 A3023 RMK AO2 SLP241 T01000083
KBFI - Seattle-Boeing
Updated: Tue, 16-Oct-2018 11:53pm PDT

 Wind from calm
Wind: Calm
Temperature: 52°F , 11°C
Dew Point: 46°F , 8°C
Humidity: 82%
Barometer: 30.23 inHg , 1023.7 hPa
Visibility: 10 miles , 16 km
2018/10/17 06:53 KBFI 170653Z 00000KT 10SM CLR 11/08 A3023 RMK AO2 SLP236 T01110083
 
KSEA - Seattle
Updated: Tue, 16-Oct-2018 11:53pm PDT

 Wind from NNE
Wind: NNE 9 mph , 15 km/h
Temperature: 55°F , 13°C
Dew Point: 46°F , 8°C
Humidity: 72%
Barometer: 30.23 inHg , 1023.7 hPa
Visibility: 10 miles , 16 km
2018/10/17 06:53 KSEA 170653Z 02008KT 10SM CLR 13/08 A3023 RMK AO2 SLP241 T01280078
KSMP - Stampede Pass
Updated: Tue, 16-Oct-2018 11:56pm PDT

 Wind from varies
Wind: varies 3 mph , 6 km/h
Temperature: 43°F , 6°C
Dew Point: 34°F , 1°C
Humidity: 71%
Barometer: 30.36 inHg , 1028.1 hPa
Visibility: 10 miles , 16 km
2018/10/17 06:56 KSMP 170656Z AUTO VRB03KT 10SM CLR 06/01 A3036 RMK AO2 SLP278 T00560011 401440044 $